Uega, Russia
Current Conditions -  °F | °C
As of 6:30 PM on Friday 28 Nov 2014 (Local Time) from UHMM Reporting Station
Overcast Overcast  
Wind Chill: -11°   Ceiling: 20000
Heat Index: -11°   Visibility: 6mi
Dew Point: -15°   Wind: 0mph
Humidity: 84%   Direction: NA
Pressure: 29.77"   Gusts: NA
Location:  60.73°N, 142.75°E
Report Text: UHMM 280830Z 00000MPS 9999 SCT100 OVC200 M24/M26 Q1008 NOSIGRMK QFE741 88950550
Loading
Personal Weather Stations






























Interactive Weather Map New forecast layout! Learn more

10-Day Weather Forecast

Advertisements
Track Severe Weather on mobile